sensor_id;sensor_type;location;lat;lon;timestamp;P1;durP1;ratioP1;P2;durP2;ratioP2
6864;SDS011;3471;49.678;8.388;2022-09-14T00:00:22;962.30;;;751.30;;
6864;SDS011;3471;49.678;8.388;2022-09-14T00:02:48;648.27;;;603.40;;
6864;SDS011;3471;49.678;8.388;2022-09-14T00:05:14;141.47;;;131.97;;
6864;SDS011;3471;49.678;8.388;2022-09-14T00:07:39;792.50;;;725.77;;
6864;SDS011;3471;49.678;8.388;2022-09-14T00:10:05;826.70;;;748.97;;
6864;SDS011;3471;49.678;8.388;2022-09-14T00:12:31;906.83;;;755.83;;
6864;SDS011;3471;49.678;8.388;2022-09-14T00:14:56;867.90;;;760.27;;
6864;SDS011;3471;49.678;8.388;2022-09-14T00:17:22;968.77;;;771.60;;
6864;SDS011;3471;49.678;8.388;2022-09-14T00:19:47;939.70;;;716.57;;
6864;SDS011;3471;49.678;8.388;2022-09-14T00:22:13;8.70;;;7.15;;
6864;SDS011;3471;49.678;8.388;2022-09-14T00:51:31;17.25;;;10.60;;
6864;SDS011;3471;49.678;8.388;2022-09-14T00:53:59;13.20;;;10.63;;
6864;SDS011;3471;49.678;8.388;2022-09-14T00:56:26;13.63;;;10.90;;
6864;SDS011;3471;49.678;8.388;2022-09-14T01:01:18;13.70;;;10.50;;
6864;SDS011;3471;49.678;8.388;2022-09-14T01:06:17;10.65;;;8.75;;
6864;SDS011;3471;49.678;8.388;2022-09-14T01:08:50;14.93;;;7.70;;
6864;SDS011;3471;49.678;8.388;2022-09-14T01:19:47;8.87;;;8.17;;
6864;SDS011;3471;49.678;8.388;2022-09-14T01:22:22;9.75;;;8.75;;
6864;SDS011;3471;49.678;8.388;2022-09-14T01:25:12;9.43;;;8.77;;
6864;SDS011;3471;49.678;8.388;2022-09-14T01:27:52;10.17;;;8.30;;
6864;SDS011;3471;49.678;8.388;2022-09-14T01:30:21;18.80;;;10.40;;
6864;SDS011;3471;49.678;8.388;2022-09-14T01:32:56;10.43;;;8.77;;
6864;SDS011;3471;49.678;8.388;2022-09-14T01:35:34;10.67;;;8.20;;
6864;SDS011;3471;49.678;8.388;2022-09-14T01:38:09;12.87;;;11.70;;
6864;SDS011;3471;49.678;8.388;2022-09-14T01:40:45;9.27;;;8.57;;
6864;SDS011;3471;49.678;8.388;2022-09-14T01:43:21;9.03;;;8.17;;
6864;SDS011;3471;49.678;8.388;2022-09-14T01:46:08;10.53;;;9.50;;
6864;SDS011;3471;49.678;8.388;2022-09-14T01:51:29;9.10;;;8.50;;
6864;SDS011;3471;49.678;8.388;2022-09-14T01:56:37;10.93;;;10.03;;
6864;SDS011;3471;49.678;8.388;2022-09-14T01:59:17;15.80;;;11.10;;
6864;SDS011;3471;49.678;8.388;2022-09-14T02:01:49;12.43;;;11.40;;
6864;SDS011;3471;49.678;8.388;2022-09-14T02:04:27;8.70;;;8.00;;
6864;SDS011;3471;49.678;8.388;2022-09-14T02:07:20;16.33;;;11.53;;
6864;SDS011;3471;49.678;8.388;2022-09-14T02:09:46;10.10;;;7.87;;
6864;SDS011;3471;49.678;8.388;2022-09-14T02:12:13;11.23;;;10.20;;
6864;SDS011;3471;49.678;8.388;2022-09-14T02:14:39;12.23;;;11.17;;
6864;SDS011;3471;49.678;8.388;2022-09-14T02:17:06;10.30;;;9.40;;
6864;SDS011;3471;49.678;8.388;2022-09-14T02:19:35;35.63;;;9.17;;
6864;SDS011;3471;49.678;8.388;2022-09-14T02:22:04;30.77;;;8.67;;
6864;SDS011;3471;49.678;8.388;2022-09-14T02:24:29;8.17;;;7.50;;
6864;SDS011;3471;49.678;8.388;2022-09-14T02:26:55;10.30;;;9.50;;
6864;SDS011;3471;49.678;8.388;2022-09-14T02:29:22;8.57;;;7.17;;
6864;SDS011;3471;49.678;8.388;2022-09-14T03:19:17;16.40;;;10.55;;
6864;SDS011;3471;49.678;8.388;2022-09-14T03:33:56;12.17;;;10.93;;
6864;SDS011;3471;49.678;8.388;2022-09-14T03:36:23;11.10;;;10.30;;
6864;SDS011;3471;49.678;8.388;2022-09-14T03:38:51;17.40;;;9.73;;
6864;SDS011;3471;49.678;8.388;2022-09-14T03:41:19;12.30;;;9.65;;
6864;SDS011;3471;49.678;8.388;2022-09-14T03:43:46;14.07;;;8.48;;
6864;SDS011;3471;49.678;8.388;2022-09-14T03:46:15;9.23;;;8.33;;
6864;SDS011;3471;49.678;8.388;2022-09-14T03:48:42;13.17;;;9.60;;
6864;SDS011;3471;49.678;8.388;2022-09-14T03:51:08;9.50;;;8.70;;
6864;SDS011;3471;49.678;8.388;2022-09-14T03:53:36;6.57;;;5.90;;
6864;SDS011;3471;49.678;8.388;2022-09-14T03:56:06;11.70;;;9.23;;
6864;SDS011;3471;49.678;8.388;2022-09-14T03:58:34;8.00;;;7.30;;
6864;SDS011;3471;49.678;8.388;2022-09-14T04:01:04;11.38;;;8.38;;
6864;SDS011;3471;49.678;8.388;2022-09-14T04:03:30;9.97;;;8.97;;
6864;SDS011;3471;49.678;8.388;2022-09-14T04:05:56;10.18;;;9.23;;
6864;SDS011;3471;49.678;8.388;2022-09-14T04:08:22;9.02;;;8.23;;
6864;SDS011;3471;49.678;8.388;2022-09-14T04:10:48;8.17;;;7.57;;
6864;SDS011;3471;49.678;8.388;2022-09-14T04:13:14;14.07;;;7.47;;
6864;SDS011;3471;49.678;8.388;2022-09-14T04:15:39;9.83;;;8.90;;
6864;SDS011;3471;49.678;8.388;2022-09-14T04:18:05;10.63;;;9.73;;
6864;SDS011;3471;49.678;8.388;2022-09-14T04:20:30;12.47;;;9.47;;
6864;SDS011;3471;49.678;8.388;2022-09-14T04:22:56;9.30;;;8.50;;
6864;SDS011;3471;49.678;8.388;2022-09-14T04:25:22;11.63;;;9.52;;
6864;SDS011;3471;49.678;8.388;2022-09-14T04:27:48;8.93;;;8.00;;
6864;SDS011;3471;49.678;8.388;2022-09-14T04:30:14;9.80;;;9.00;;
6864;SDS011;3471;49.678;8.388;2022-09-14T04:32:40;9.82;;;8.93;;
6864;SDS011;3471;49.678;8.388;2022-09-14T04:35:06;12.82;;;8.93;;
6864;SDS011;3471;49.678;8.388;2022-09-14T04:37:32;7.97;;;7.37;;
6864;SDS011;3471;49.678;8.388;2022-09-14T04:39:57;8.60;;;7.60;;
6864;SDS011;3471;49.678;8.388;2022-09-14T04:42:24;9.23;;;8.40;;
6864;SDS011;3471;49.678;8.388;2022-09-14T04:44:49;14.83;;;10.33;;
6864;SDS011;3471;49.678;8.388;2022-09-14T04:47:15;12.20;;;9.10;;
6864;SDS011;3471;49.678;8.388;2022-09-14T04:49:40;11.07;;;8.00;;
6864;SDS011;3471;49.678;8.388;2022-09-14T04:52:06;11.20;;;10.00;;
6864;SDS011;3471;49.678;8.388;2022-09-14T04:54:31;9.00;;;8.20;;
6864;SDS011;3471;49.678;8.388;2022-09-14T04:56:57;8.77;;;7.93;;
6864;SDS011;3471;49.678;8.388;2022-09-14T04:59:23;9.33;;;8.53;;
6864;SDS011;3471;49.678;8.388;2022-09-14T05:01:48;19.63;;;11.53;;
6864;SDS011;3471;49.678;8.388;2022-09-14T05:04:14;10.53;;;9.50;;
6864;SDS011;3471;49.678;8.388;2022-09-14T05:06:40;9.47;;;8.57;;
6864;SDS011;3471;49.678;8.388;2022-09-14T05:09:12;11.85;;;8.02;;
6864;SDS011;3471;49.678;8.388;2022-09-14T05:11:39;15.47;;;9.00;;
6864;SDS011;3471;49.678;8.388;2022-09-14T05:14:05;12.43;;;7.80;;
6864;SDS011;3471;49.678;8.388;2022-09-14T05:16:32;7.90;;;7.20;;
6864;SDS011;3471;49.678;8.388;2022-09-14T05:19:01;15.95;;;9.10;;
6864;SDS011;3471;49.678;8.388;2022-09-14T05:21:29;8.57;;;7.70;;
6864;SDS011;3471;49.678;8.388;2022-09-14T05:23:59;7.65;;;6.95;;
6864;SDS011;3471;49.678;8.388;2022-09-14T05:26:27;7.78;;;7.15;;
6864;SDS011;3471;49.678;8.388;2022-09-14T05:28:55;9.30;;;8.60;;
6864;SDS011;3471;49.678;8.388;2022-09-14T05:31:22;9.68;;;8.77;;
6864;SDS011;3471;49.678;8.388;2022-09-14T05:33:49;8.40;;;7.70;;
6864;SDS011;3471;49.678;8.388;2022-09-14T05:36:15;14.30;;;9.60;;
6864;SDS011;3471;49.678;8.388;2022-09-14T05:38:41;12.33;;;7.20;;
6864;SDS011;3471;49.678;8.388;2022-09-14T05:41:08;10.03;;;9.07;;
6864;SDS011;3471;49.678;8.388;2022-09-14T05:43:35;8.63;;;7.83;;
6864;SDS011;3471;49.678;8.388;2022-09-14T05:46:02;9.30;;;8.50;;
6864;SDS011;3471;49.678;8.388;2022-09-14T05:48:30;8.35;;;7.05;;
6864;SDS011;3471;49.678;8.388;2022-09-14T05:51:00;9.73;;;8.73;;
6864;SDS011;3471;49.678;8.388;2022-09-14T05:53:27;9.32;;;8.52;;
6864;SDS011;3471;49.678;8.388;2022-09-14T05:56:03;10.53;;;8.30;;
6864;SDS011;3471;49.678;8.388;2022-09-14T05:58:31;9.10;;;8.33;;
6864;SDS011;3471;49.678;8.388;2022-09-14T06:00:57;12.20;;;8.77;;
6864;SDS011;3471;49.678;8.388;2022-09-14T06:03:23;11.77;;;7.45;;
6864;SDS011;3471;49.678;8.388;2022-09-14T06:05:49;9.70;;;6.63;;
6864;SDS011;3471;49.678;8.388;2022-09-14T06:08:15;11.03;;;7.20;;
6864;SDS011;3471;49.678;8.388;2022-09-14T06:10:40;7.97;;;7.30;;
6864;SDS011;3471;49.678;8.388;2022-09-14T06:13:06;10.17;;;7.60;;
6864;SDS011;3471;49.678;8.388;2022-09-14T06:15:32;5.73;;;5.23;;
6864;SDS011;3471;49.678;8.388;2022-09-14T06:17:58;8.20;;;7.40;;
6864;SDS011;3471;49.678;8.388;2022-09-14T06:20:24;6.70;;;6.20;;
6864;SDS011;3471;49.678;8.388;2022-09-14T06:22:50;14.02;;;8.18;;
6864;SDS011;3471;49.678;8.388;2022-09-14T06:25:15;11.10;;;8.70;;
6864;SDS011;3471;49.678;8.388;2022-09-14T06:27:41;6.17;;;5.60;;
6864;SDS011;3471;49.678;8.388;2022-09-14T06:30:07;9.80;;;8.80;;
6864;SDS011;3471;49.678;8.388;2022-09-14T06:32:33;6.00;;;5.50;;
6864;SDS011;3471;49.678;8.388;2022-09-14T06:34:58;9.00;;;7.77;;
6864;SDS011;3471;49.678;8.388;2022-09-14T06:37:24;6.80;;;6.30;;
6864;SDS011;3471;49.678;8.388;2022-09-14T06:39:50;8.50;;;7.83;;
6864;SDS011;3471;49.678;8.388;2022-09-14T06:42:15;12.10;;;10.23;;
6864;SDS011;3471;49.678;8.388;2022-09-14T06:44:41;7.43;;;6.10;;
6864;SDS011;3471;49.678;8.388;2022-09-14T06:47:07;8.13;;;7.33;;
6864;SDS011;3471;49.678;8.388;2022-09-14T06:49:32;9.10;;;8.40;;
6864;SDS011;3471;49.678;8.388;2022-09-14T06:51:58;11.60;;;8.13;;
6864;SDS011;3471;49.678;8.388;2022-09-14T06:54:25;7.78;;;6.47;;
6864;SDS011;3471;49.678;8.388;2022-09-14T06:56:51;6.78;;;6.28;;
6864;SDS011;3471;49.678;8.388;2022-09-14T06:59:16;7.13;;;6.53;;
6864;SDS011;3471;49.678;8.388;2022-09-14T07:01:42;7.88;;;7.07;;
6864;SDS011;3471;49.678;8.388;2022-09-14T07:04:09;7.63;;;5.30;;
6864;SDS011;3471;49.678;8.388;2022-09-14T07:06:39;7.67;;;7.07;;
6864;SDS011;3471;49.678;8.388;2022-09-14T07:09:06;6.43;;;5.77;;
6864;SDS011;3471;49.678;8.388;2022-09-14T07:11:32;5.13;;;4.63;;
6864;SDS011;3471;49.678;8.388;2022-09-14T07:13:58;6.40;;;5.80;;
6864;SDS011;3471;49.678;8.388;2022-09-14T07:16:24;9.00;;;6.90;;
6864;SDS011;3471;49.678;8.388;2022-09-14T07:18:52;5.97;;;4.13;;
6864;SDS011;3471;49.678;8.388;2022-09-14T07:21:18;4.40;;;4.10;;
6864;SDS011;3471;49.678;8.388;2022-09-14T07:23:45;8.17;;;7.47;;
6864;SDS011;3471;49.678;8.388;2022-09-14T07:26:15;6.93;;;6.33;;
6864;SDS011;3471;49.678;8.388;2022-09-14T07:28:43;6.20;;;5.70;;
6864;SDS011;3471;49.678;8.388;2022-09-14T07:31:30;6.40;;;5.67;;
6864;SDS011;3471;49.678;8.388;2022-09-14T07:34:01;6.00;;;5.57;;
6864;SDS011;3471;49.678;8.388;2022-09-14T07:36:28;8.23;;;7.40;;
6864;SDS011;3471;49.678;8.388;2022-09-14T07:38:55;5.70;;;5.17;;
6864;SDS011;3471;49.678;8.388;2022-09-14T07:41:22;4.37;;;3.97;;
6864;SDS011;3471;49.678;8.388;2022-09-14T07:43:50;12.53;;;6.90;;
6864;SDS011;3471;49.678;8.388;2022-09-14T07:46:16;5.60;;;4.93;;
6864;SDS011;3471;49.678;8.388;2022-09-14T07:48:43;8.90;;;6.50;;
6864;SDS011;3471;49.678;8.388;2022-09-14T07:51:09;6.80;;;6.27;;
6864;SDS011;3471;49.678;8.388;2022-09-14T07:53:39;5.10;;;4.23;;
6864;SDS011;3471;49.678;8.388;2022-09-14T07:56:07;9.23;;;6.70;;
6864;SDS011;3471;49.678;8.388;2022-09-14T07:58:34;6.43;;;4.03;;
6864;SDS011;3471;49.678;8.388;2022-09-14T08:01:01;6.77;;;6.13;;
6864;SDS011;3471;49.678;8.388;2022-09-14T08:03:29;5.07;;;4.63;;
6864;SDS011;3471;49.678;8.388;2022-09-14T08:05:58;6.47;;;5.83;;
6864;SDS011;3471;49.678;8.388;2022-09-14T08:08:30;9.10;;;7.10;;
6864;SDS011;3471;49.678;8.388;2022-09-14T08:11:11;7.17;;;6.57;;
6864;SDS011;3471;49.678;8.388;2022-09-14T08:13:43;6.00;;;5.60;;
6864;SDS011;3471;49.678;8.388;2022-09-14T08:16:30;8.47;;;7.77;;
6864;SDS011;3471;49.678;8.388;2022-09-14T08:18:57;9.87;;;8.97;;
6864;SDS011;3471;49.678;8.388;2022-09-14T08:21:25;8.90;;;6.07;;
6864;SDS011;3471;49.678;8.388;2022-09-14T08:23:52;6.07;;;5.53;;
6864;SDS011;3471;49.678;8.388;2022-09-14T08:26:19;9.03;;;5.33;;
6864;SDS011;3471;49.678;8.388;2022-09-14T08:28:47;4.63;;;4.23;;
6864;SDS011;3471;49.678;8.388;2022-09-14T08:31:19;8.47;;;7.00;;
6864;SDS011;3471;49.678;8.388;2022-09-14T08:33:50;5.80;;;5.40;;
6864;SDS011;3471;49.678;8.388;2022-09-14T08:36:21;5.73;;;5.20;;
6864;SDS011;3471;49.678;8.388;2022-09-14T08:38:48;7.10;;;6.60;;
6864;SDS011;3471;49.678;8.388;2022-09-14T08:41:21;11.60;;;9.93;;
6864;SDS011;3471;49.678;8.388;2022-09-14T08:43:51;10.00;;;7.27;;
6864;SDS011;3471;49.678;8.388;2022-09-14T08:46:30;7.67;;;7.00;;
6864;SDS011;3471;49.678;8.388;2022-09-14T08:49:01;6.63;;;5.40;;
6864;SDS011;3471;49.678;8.388;2022-09-14T08:51:33;4.90;;;4.50;;
6864;SDS011;3471;49.678;8.388;2022-09-14T08:53:59;5.07;;;4.77;;
6864;SDS011;3471;49.678;8.388;2022-09-14T08:56:31;6.00;;;5.50;;
6864;SDS011;3471;49.678;8.388;2022-09-14T09:01:53;7.80;;;5.90;;
6864;SDS011;3471;49.678;8.388;2022-09-14T09:07:02;4.90;;;4.47;;
6864;SDS011;3471;49.678;8.388;2022-09-14T09:09:49;7.87;;;7.07;;
6864;SDS011;3471;49.678;8.388;2022-09-14T09:12:18;5.87;;;5.27;;
6864;SDS011;3471;49.678;8.388;2022-09-14T09:14:47;7.17;;;6.53;;
6864;SDS011;3471;49.678;8.388;2022-09-14T09:17:37;13.33;;;8.53;;
6864;SDS011;3471;49.678;8.388;2022-09-14T09:25:22;9.60;;;6.50;;
6864;SDS011;3471;49.678;8.388;2022-09-14T09:27:53;8.70;;;5.90;;
6864;SDS011;3471;49.678;8.388;2022-09-14T09:30:21;7.30;;;6.80;;
6864;SDS011;3471;49.678;8.388;2022-09-14T09:32:46;10.83;;;8.37;;
6864;SDS011;3471;49.678;8.388;2022-09-14T09:35:13;14.37;;;7.80;;
6864;SDS011;3471;49.678;8.388;2022-09-14T09:37:46;6.40;;;5.83;;
6864;SDS011;3471;49.678;8.388;2022-09-14T09:40:16;6.17;;;5.67;;
6864;SDS011;3471;49.678;8.388;2022-09-14T09:43:22;8.17;;;7.47;;
6864;SDS011;3471;49.678;8.388;2022-09-14T09:45:46;5.93;;;5.37;;
6864;SDS011;3471;49.678;8.388;2022-09-14T09:48:12;6.47;;;5.87;;
6864;SDS011;3471;49.678;8.388;2022-09-14T09:50:50;9.23;;;7.20;;
6864;SDS011;3471;49.678;8.388;2022-09-14T09:53:25;11.73;;;8.40;;
6864;SDS011;3471;49.678;8.388;2022-09-14T09:55:51;6.07;;;5.57;;
6864;SDS011;3471;49.678;8.388;2022-09-14T09:58:21;6.37;;;5.93;;
6864;SDS011;3471;49.678;8.388;2022-09-14T10:01:03;10.13;;;6.80;;
6864;SDS011;3471;49.678;8.388;2022-09-14T10:03:42;6.63;;;6.03;;
6864;SDS011;3471;49.678;8.388;2022-09-14T10:06:15;9.20;;;7.57;;
6864;SDS011;3471;49.678;8.388;2022-09-14T10:08:42;10.93;;;6.87;;
6864;SDS011;3471;49.678;8.388;2022-09-14T10:11:31;8.47;;;6.93;;
6864;SDS011;3471;49.678;8.388;2022-09-14T10:13:57;6.47;;;5.97;;
6864;SDS011;3471;49.678;8.388;2022-09-14T10:16:24;10.93;;;8.27;;
6864;SDS011;3471;49.678;8.388;2022-09-14T10:18:54;5.00;;;4.13;;
6864;SDS011;3471;49.678;8.388;2022-09-14T10:21:21;12.40;;;7.00;;
6864;SDS011;3471;49.678;8.388;2022-09-14T10:24:01;9.03;;;8.13;;
6864;SDS011;3471;49.678;8.388;2022-09-14T10:26:33;6.63;;;5.87;;
6864;SDS011;3471;49.678;8.388;2022-09-14T10:29:18;15.77;;;8.17;;
6864;SDS011;3471;49.678;8.388;2022-09-14T10:31:54;6.57;;;5.87;;
6864;SDS011;3471;49.678;8.388;2022-09-14T10:34:25;17.33;;;7.33;;
6864;SDS011;3471;49.678;8.388;2022-09-14T10:36:53;5.90;;;5.40;;
6864;SDS011;3471;49.678;8.388;2022-09-14T10:39:31;8.03;;;7.03;;
6864;SDS011;3471;49.678;8.388;2022-09-14T10:42:16;14.50;;;8.00;;
6864;SDS011;3471;49.678;8.388;2022-09-14T10:50:34;17.13;;;8.53;;
6864;SDS011;3471;49.678;8.388;2022-09-14T11:12:40;8.43;;;7.70;;
6864;SDS011;3471;49.678;8.388;2022-09-14T11:15:34;6.03;;;5.07;;
6864;SDS011;3471;49.678;8.388;2022-09-14T11:18:17;5.07;;;4.67;;
6864;SDS011;3471;49.678;8.388;2022-09-14T11:26:32;11.40;;;6.27;;
6864;SDS011;3471;49.678;8.388;2022-09-14T11:29:21;12.47;;;4.90;;
6864;SDS011;3471;49.678;8.388;2022-09-14T11:31:53;4.87;;;4.50;;
6864;SDS011;3471;49.678;8.388;2022-09-14T11:34:28;7.07;;;6.57;;
6864;SDS011;3471;49.678;8.388;2022-09-14T11:37:21;7.23;;;6.73;;
6864;SDS011;3471;49.678;8.388;2022-09-14T11:39:58;7.83;;;6.50;;
6864;SDS011;3471;49.678;8.388;2022-09-14T11:45:47;6.10;;;5.60;;
6864;SDS011;3471;49.678;8.388;2022-09-14T11:50:52;6.17;;;5.57;;
6864;SDS011;3471;49.678;8.388;2022-09-14T11:53:41;9.43;;;5.10;;
6864;SDS011;3471;49.678;8.388;2022-09-14T11:56:24;5.40;;;4.93;;
6864;SDS011;3471;49.678;8.388;2022-09-14T11:58:58;7.70;;;7.10;;
6864;SDS011;3471;49.678;8.388;2022-09-14T12:01:31;6.23;;;5.63;;
6864;SDS011;3471;49.678;8.388;2022-09-14T12:08:54;11.37;;;7.50;;
6864;SDS011;3471;49.678;8.388;2022-09-14T12:11:48;9.63;;;5.90;;
6864;SDS011;3471;49.678;8.388;2022-09-14T12:19:42;7.73;;;5.87;;
6864;SDS011;3471;49.678;8.388;2022-09-14T12:25:03;5.60;;;5.10;;
6864;SDS011;3471;49.678;8.388;2022-09-14T12:27:34;10.13;;;7.43;;
6864;SDS011;3471;49.678;8.388;2022-09-14T12:30:02;5.40;;;4.70;;
6864;SDS011;3471;49.678;8.388;2022-09-14T12:32:47;6.63;;;6.03;;
6864;SDS011;3471;49.678;8.388;2022-09-14T12:38:37;6.30;;;5.70;;
6864;SDS011;3471;49.678;8.388;2022-09-14T12:40:54;5.90;;;5.30;;
6864;SDS011;3471;49.678;8.388;2022-09-14T12:43:45;7.77;;;6.87;;
6864;SDS011;3471;49.678;8.388;2022-09-14T12:46:29;5.27;;;4.80;;
6864;SDS011;3471;49.678;8.388;2022-09-14T12:49:00;6.73;;;6.20;;
6864;SDS011;3471;49.678;8.388;2022-09-14T12:51:41;5.37;;;4.97;;
6864;SDS011;3471;49.678;8.388;2022-09-14T12:57:25;15.87;;;5.83;;
6864;SDS011;3471;49.678;8.388;2022-09-14T13:00:10;8.37;;;6.40;;
6864;SDS011;3471;49.678;8.388;2022-09-14T13:05:42;17.53;;;7.70;;
6864;SDS011;3471;49.678;8.388;2022-09-14T13:08:10;7.53;;;6.50;;
6864;SDS011;3471;49.678;8.388;2022-09-14T13:10:39;5.83;;;5.40;;
6864;SDS011;3471;49.678;8.388;2022-09-14T13:13:15;5.93;;;5.50;;
6864;SDS011;3471;49.678;8.388;2022-09-14T13:15:51;8.27;;;7.53;;
6864;SDS011;3471;49.678;8.388;2022-09-14T13:20:51;6.93;;;6.43;;
6864;SDS011;3471;49.678;8.388;2022-09-14T13:23:22;7.50;;;6.67;;
6864;SDS011;3471;49.678;8.388;2022-09-14T13:25:52;12.80;;;8.00;;
6864;SDS011;3471;49.678;8.388;2022-09-14T13:28:19;10.40;;;7.60;;
6864;SDS011;3471;49.678;8.388;2022-09-14T13:30:52;6.20;;;5.60;;
6864;SDS011;3471;49.678;8.388;2022-09-14T13:33:19;7.23;;;5.63;;
6864;SDS011;3471;49.678;8.388;2022-09-14T13:35:46;20.03;;;4.47;;
6864;SDS011;3471;49.678;8.388;2022-09-14T13:38:15;6.43;;;5.87;;
6864;SDS011;3471;49.678;8.388;2022-09-14T13:40:43;9.80;;;8.10;;
6864;SDS011;3471;49.678;8.388;2022-09-14T13:43:10;6.03;;;4.63;;
6864;SDS011;3471;49.678;8.388;2022-09-14T13:45:36;13.73;;;6.20;;
6864;SDS011;3471;49.678;8.388;2022-09-14T13:48:03;6.73;;;6.13;;
6864;SDS011;3471;49.678;8.388;2022-09-14T13:50:30;6.37;;;5.83;;
6864;SDS011;3471;49.678;8.388;2022-09-14T13:52:57;20.90;;;6.40;;
6864;SDS011;3471;49.678;8.388;2022-09-14T13:58:29;10.77;;;8.07;;
6864;SDS011;3471;49.678;8.388;2022-09-14T14:05:54;5.60;;;5.10;;
6864;SDS011;3471;49.678;8.388;2022-09-14T14:08:29;14.47;;;5.47;;
6864;SDS011;3471;49.678;8.388;2022-09-14T14:11:05;4.83;;;4.47;;
6864;SDS011;3471;49.678;8.388;2022-09-14T14:13:33;3.87;;;3.57;;
6864;SDS011;3471;49.678;8.388;2022-09-14T14:18:42;8.63;;;5.87;;
6864;SDS011;3471;49.678;8.388;2022-09-14T14:26:55;7.87;;;4.50;;
6864;SDS011;3471;49.678;8.388;2022-09-14T14:29:22;5.83;;;4.40;;
6864;SDS011;3471;49.678;8.388;2022-09-14T14:31:48;12.33;;;3.73;;
6864;SDS011;3471;49.678;8.388;2022-09-14T14:34:20;12.80;;;2.47;;
6864;SDS011;3471;49.678;8.388;2022-09-14T14:36:48;3.53;;;2.57;;
6864;SDS011;3471;49.678;8.388;2022-09-14T14:39:15;5.43;;;3.30;;
6864;SDS011;3471;49.678;8.388;2022-09-14T14:41:42;3.37;;;2.40;;
6864;SDS011;3471;49.678;8.388;2022-09-14T14:44:12;4.23;;;3.57;;
6864;SDS011;3471;49.678;8.388;2022-09-14T14:46:48;3.57;;;3.23;;
6864;SDS011;3471;49.678;8.388;2022-09-14T14:49:14;2.40;;;2.20;;
6864;SDS011;3471;49.678;8.388;2022-09-14T14:51:41;3.13;;;2.90;;
6864;SDS011;3471;49.678;8.388;2022-09-14T14:54:07;3.97;;;1.63;;
6864;SDS011;3471;49.678;8.388;2022-09-14T14:56:34;2.60;;;2.40;;
6864;SDS011;3471;49.678;8.388;2022-09-14T14:59:13;2.37;;;1.97;;
6864;SDS011;3471;49.678;8.388;2022-09-14T15:01:50;1.73;;;1.63;;
6864;SDS011;3471;49.678;8.388;2022-09-14T15:04:17;2.73;;;2.23;;
6864;SDS011;3471;49.678;8.388;2022-09-14T15:06:46;7.10;;;2.07;;
6864;SDS011;3471;49.678;8.388;2022-09-14T15:09:13;2.50;;;1.67;;
6864;SDS011;3471;49.678;8.388;2022-09-14T15:11:41;1.77;;;1.67;;
6864;SDS011;3471;49.678;8.388;2022-09-14T15:14:10;2.10;;;1.63;;
6864;SDS011;3471;49.678;8.388;2022-09-14T15:16:37;4.50;;;1.57;;
6864;SDS011;3471;49.678;8.388;2022-09-14T15:19:03;4.33;;;2.80;;
6864;SDS011;3471;49.678;8.388;2022-09-14T15:21:29;10.90;;;3.80;;
6864;SDS011;3471;49.678;8.388;2022-09-14T15:23:54;4.10;;;2.43;;
6864;SDS011;3471;49.678;8.388;2022-09-14T15:26:20;12.43;;;2.33;;
6864;SDS011;3471;49.678;8.388;2022-09-14T15:28:45;2.60;;;2.27;;
6864;SDS011;3471;49.678;8.388;2022-09-14T15:31:13;2.50;;;2.30;;
6864;SDS011;3471;49.678;8.388;2022-09-14T15:33:39;1.87;;;1.60;;
6864;SDS011;3471;49.678;8.388;2022-09-14T15:36:04;1.80;;;1.33;;
6864;SDS011;3471;49.678;8.388;2022-09-14T15:38:30;1.70;;;1.60;;
6864;SDS011;3471;49.678;8.388;2022-09-14T15:40:55;3.00;;;1.93;;
6864;SDS011;3471;49.678;8.388;2022-09-14T15:43:21;1.30;;;0.83;;
6864;SDS011;3471;49.678;8.388;2022-09-14T15:45:47;6.40;;;2.83;;
6864;SDS011;3471;49.678;8.388;2022-09-14T15:48:16;2.93;;;1.97;;
6864;SDS011;3471;49.678;8.388;2022-09-14T15:50:43;9.13;;;1.93;;
6864;SDS011;3471;49.678;8.388;2022-09-14T15:53:10;3.00;;;2.30;;
6864;SDS011;3471;49.678;8.388;2022-09-14T15:55:40;2.23;;;2.03;;
6864;SDS011;3471;49.678;8.388;2022-09-14T15:58:08;2.90;;;1.97;;
6864;SDS011;3471;49.678;8.388;2022-09-14T16:00:34;2.13;;;1.77;;
6864;SDS011;3471;49.678;8.388;2022-09-14T16:03:00;2.30;;;1.73;;
6864;SDS011;3471;49.678;8.388;2022-09-14T16:05:26;2.40;;;2.20;;
6864;SDS011;3471;49.678;8.388;2022-09-14T16:07:52;1.70;;;1.60;;
6864;SDS011;3471;49.678;8.388;2022-09-14T16:10:19;5.37;;;3.63;;
6864;SDS011;3471;49.678;8.388;2022-09-14T16:12:44;3.50;;;1.93;;
6864;SDS011;3471;49.678;8.388;2022-09-14T16:15:10;7.33;;;1.97;;
6864;SDS011;3471;49.678;8.388;2022-09-14T16:17:36;1.93;;;1.17;;
6864;SDS011;3471;49.678;8.388;2022-09-14T16:20:03;3.77;;;2.30;;
6864;SDS011;3471;49.678;8.388;2022-09-14T16:22:30;4.83;;;3.80;;
6864;SDS011;3471;49.678;8.388;2022-09-14T16:24:56;2.73;;;1.80;;
6864;SDS011;3471;49.678;8.388;2022-09-14T16:27:21;5.53;;;3.03;;
6864;SDS011;3471;49.678;8.388;2022-09-14T16:29:47;1.53;;;1.37;;
6864;SDS011;3471;49.678;8.388;2022-09-14T16:32:13;4.17;;;3.37;;
6864;SDS011;3471;49.678;8.388;2022-09-14T16:34:39;8.30;;;1.73;;
6864;SDS011;3471;49.678;8.388;2022-09-14T16:37:04;4.80;;;3.07;;
6864;SDS011;3471;49.678;8.388;2022-09-14T16:39:30;1.63;;;1.53;;
6864;SDS011;3471;49.678;8.388;2022-09-14T16:41:58;3.43;;;1.93;;
6864;SDS011;3471;49.678;8.388;2022-09-14T16:44:24;3.60;;;3.27;;
6864;SDS011;3471;49.678;8.388;2022-09-14T16:46:52;1.53;;;1.43;;
6864;SDS011;3471;49.678;8.388;2022-09-14T16:49:19;7.70;;;2.73;;
6864;SDS011;3471;49.678;8.388;2022-09-14T16:51:45;1.97;;;1.53;;
6864;SDS011;3471;49.678;8.388;2022-09-14T16:54:14;1.87;;;1.77;;
6864;SDS011;3471;49.678;8.388;2022-09-14T16:56:41;1.50;;;1.20;;
6864;SDS011;3471;49.678;8.388;2022-09-14T16:59:08;1.30;;;1.00;;
6864;SDS011;3471;49.678;8.388;2022-09-14T17:01:35;5.33;;;2.20;;
6864;SDS011;3471;49.678;8.388;2022-09-14T17:04:03;7.00;;;3.53;;
6864;SDS011;3471;49.678;8.388;2022-09-14T17:06:34;3.27;;;2.07;;
6864;SDS011;3471;49.678;8.388;2022-09-14T17:09:05;4.83;;;3.93;;
6864;SDS011;3471;49.678;8.388;2022-09-14T17:11:33;2.37;;;1.97;;
6864;SDS011;3471;49.678;8.388;2022-09-14T17:14:01;2.00;;;1.40;;
6864;SDS011;3471;49.678;8.388;2022-09-14T17:16:27;2.63;;;2.13;;
6864;SDS011;3471;49.678;8.388;2022-09-14T17:18:55;8.83;;;3.40;;
6864;SDS011;3471;49.678;8.388;2022-09-14T17:21:31;2.57;;;1.83;;
6864;SDS011;3471;49.678;8.388;2022-09-14T17:23:58;3.73;;;2.70;;
6864;SDS011;3471;49.678;8.388;2022-09-14T17:26:25;2.90;;;2.30;;
6864;SDS011;3471;49.678;8.388;2022-09-14T17:28:53;2.67;;;2.47;;
6864;SDS011;3471;49.678;8.388;2022-09-14T17:31:21;4.90;;;4.30;;
6864;SDS011;3471;49.678;8.388;2022-09-14T17:33:48;1.93;;;1.57;;
6864;SDS011;3471;49.678;8.388;2022-09-14T17:36:15;3.90;;;3.60;;
6864;SDS011;3471;49.678;8.388;2022-09-14T17:38:41;4.03;;;2.77;;
6864;SDS011;3471;49.678;8.388;2022-09-14T17:41:12;7.60;;;3.20;;
6864;SDS011;3471;49.678;8.388;2022-09-14T17:43:41;3.77;;;3.47;;
6864;SDS011;3471;49.678;8.388;2022-09-14T17:46:10;7.87;;;3.97;;
6864;SDS011;3471;49.678;8.388;2022-09-14T17:48:38;23.13;;;4.33;;
6864;SDS011;3471;49.678;8.388;2022-09-14T17:51:05;2.50;;;2.30;;
6864;SDS011;3471;49.678;8.388;2022-09-14T17:53:41;2.50;;;2.30;;
6864;SDS011;3471;49.678;8.388;2022-09-14T17:56:09;2.43;;;2.23;;
6864;SDS011;3471;49.678;8.388;2022-09-14T17:58:36;11.97;;;2.27;;
6864;SDS011;3471;49.678;8.388;2022-09-14T18:01:13;1.30;;;0.80;;
6864;SDS011;3471;49.678;8.388;2022-09-14T18:03:51;2.97;;;2.40;;
6864;SDS011;3471;49.678;8.388;2022-09-14T18:06:19;1.50;;;1.17;;
6864;SDS011;3471;49.678;8.388;2022-09-14T18:08:46;2.80;;;2.60;;
6864;SDS011;3471;49.678;8.388;2022-09-14T18:11:16;8.00;;;1.73;;
6864;SDS011;3471;49.678;8.388;2022-09-14T18:13:46;4.73;;;1.40;;
6864;SDS011;3471;49.678;8.388;2022-09-14T18:16:13;1.60;;;1.23;;
6864;SDS011;3471;49.678;8.388;2022-09-14T18:18:40;1.40;;;1.00;;
6864;SDS011;3471;49.678;8.388;2022-09-14T18:21:06;1.50;;;1.00;;
6864;SDS011;3471;49.678;8.388;2022-09-14T18:23:32;1.97;;;1.50;;
6864;SDS011;3471;49.678;8.388;2022-09-14T18:26:03;5.57;;;2.03;;
6864;SDS011;3471;49.678;8.388;2022-09-14T18:28:29;1.60;;;1.20;;
6864;SDS011;3471;49.678;8.388;2022-09-14T18:31:02;1.30;;;0.80;;
6864;SDS011;3471;49.678;8.388;2022-09-14T18:33:33;2.90;;;2.30;;
6864;SDS011;3471;49.678;8.388;2022-09-14T18:35:59;3.30;;;2.20;;
6864;SDS011;3471;49.678;8.388;2022-09-14T18:38:25;1.50;;;1.20;;